YTR weather

CFB Trenton
Trenton, Ontario, Canada

Public forecast

Using degrees Celsius for public forecast. Weather courtesy of forecast.io.

METAR (pilot weather report)

Retrieved 2019/05/24 10:00 UTC (19 minutes ago):

CYTR 241000Z 32002KT 15SM FEW020 FEW034 13/10 A2991 RMK SC1SC2 SLP130

TAF (pilot weather forecast)

Retrieved 2019/05/24 06:33 UTC (4 hours ago):

TAF CYTR 240530Z 2406/2506 29012KT P6SM FEW060 FM240900 30008KT P6SM BKN025 TEMPO 2409/2414 BKN020 BECMG 2410/2412 31010G20KT FM241600 34010KT P6SM SCT030 FM242100 34008KT P6SM BKN030 BKN240 BECMG 2422/2424 VRB03KT RMK NXT FCST BY 241200Z